Time;durP1;ratioP1;P1;durP2;ratioP2;P2;SDS_P1;SDS_P2;PMS_P1;PMS_P2;Temp;Humidity;BMP_temperature;BMP_pressure;BME280_temperature;BME280_humidity;BME280_pressure;Samples;Min_cycle;Max_cycle;Signal;HPM_P1;HPM_P2
2023/10/18 00:02:17;;;;;;;10.05;7.82;;;;;;;17.21;nan;99059.34;5073317;28;20040;-63
2023/10/18 00:04:46;;;;;;;11.25;7.35;;;;;;;17.17;nan;99060.03;5068495;28;20145;-63
2023/10/18 00:07:15;;;;;;;11.60;7.63;;;;;;;17.15;nan;99062.09;5073059;28;20039;-63
2023/10/18 00:09:51;;;;;;;13.73;7.60;;;;;;;17.31;nan;99066.81;5086601;28;20047;-63
2023/10/18 00:12:20;;;;;;;10.90;6.43;;;;;;;17.06;nan;99073.13;5058636;28;20048;-63
2023/10/18 00:14:51;;;;;;;8.48;6.30;;;;;;;17.14;nan;99073.84;5067558;28;20076;-63
2023/10/18 00:17:20;;;;;;;9.48;6.63;;;;;;;17.29;nan;99075.09;5064967;28;20076;-63
2023/10/18 00:19:50;;;;;;;10.40;6.93;;;;;;;17.51;nan;99073.56;5064960;28;20049;-63
2023/10/18 00:22:19;;;;;;;10.23;7.38;;;;;;;17.31;nan;99081.03;5059035;28;20044;-63
2023/10/18 00:24:49;;;;;;;12.57;8.35;;;;;;;17.28;nan;99076.13;5057456;28;20129;-63
2023/10/18 00:27:18;;;;;;;13.82;8.85;;;;;;;17.41;nan;99078.63;5065775;28;20064;-63
2023/10/18 00:29:47;;;;;;;16.00;8.75;;;;;;;17.37;nan;99088.16;5046847;28;20080;-62
2023/10/18 00:32:21;;;;;;;13.50;8.40;;;;;;;17.41;nan;99081.31;5076826;28;20044;-63
2023/10/18 00:34:54;;;;;;;12.65;8.13;;;;;;;17.46;nan;99083.31;5072919;28;20151;-63
2023/10/18 00:37:25;;;;;;;12.52;8.98;;;;;;;17.24;nan;99077.63;5084629;28;20035;-63
2023/10/18 00:39:55;;;;;;;13.05;8.85;;;;;;;17.07;nan;99081.97;5084662;28;20055;-63
2023/10/18 00:42:28;;;;;;;12.82;8.40;;;;;;;17.10;nan;99084.19;5064738;28;20044;-63
2023/10/18 00:45:08;;;;;;;14.23;7.45;;;;;;;17.18;nan;99091.09;5093045;28;20063;-63
2023/10/18 00:47:38;;;;;;;10.63;7.18;;;;;;;17.23;nan;99088.56;5081485;28;20738;-63
2023/10/18 00:50:09;;;;;;;16.75;8.75;;;;;;;17.29;nan;99085.81;5049501;28;20044;-64
2023/10/18 00:52:39;;;;;;;10.75;7.18;;;;;;;17.23;nan;99084.03;5061735;28;20131;-63
2023/10/18 00:55:12;;;;;;;8.93;6.53;;;;;;;17.02;nan;99085.31;5049772;28;20055;-63
2023/10/18 00:57:41;;;;;;;;;;;;;;;17.03;nan;99075.44;5077670;28;20080;-63
2023/10/18 01:00:19;;;;;;;13.05;6.93;;;;;;;17.05;nan;99087.53;5077720;28;19924;-63
2023/10/18 01:02:50;;;;;;;13.10;7.47;;;;;;;17.25;nan;99084.63;5079732;28;20047;-63
2023/10/18 01:05:20;;;;;;;13.07;7.93;;;;;;;17.18;nan;99094.59;5082711;28;20483;-62
2023/10/18 01:07:53;;;;;;;16.90;8.43;;;;;;;17.14;nan;99088.03;5068753;28;20569;-63
2023/10/18 01:10:24;;;;;;;14.20;8.90;;;;;;;16.95;nan;99087.25;5087153;28;20091;-63
2023/10/18 01:12:53;;;;;;;16.55;9.10;;;;;;;16.95;nan;99097.94;5066578;28;20487;-63
2023/10/18 01:15:27;;;;;;;15.25;8.82;;;;;;;17.11;nan;99103.75;5087831;28;20044;-64
2023/10/18 01:17:57;;;;;;;13.48;8.50;;;;;;;17.04;nan;99104.63;5081817;28;20346;-62
2023/10/18 01:23:03;;;;;;;11.38;7.57;;;;;;;17.34;nan;99114.56;5068079;28;20067;-64
2023/10/18 01:25:32;;;;;;;13.30;7.90;;;;;;;17.42;nan;99119.63;5085326;28;20052;-64
2023/10/18 01:28:02;;;;;;;13.18;8.43;;;;;;;17.28;nan;99118.97;5085869;28;20055;-64
2023/10/18 01:30:33;;;;;;;12.48;8.85;;;;;;;17.29;nan;99120.59;5080931;28;20055;-64
2023/10/18 01:33:04;;;;;;;11.48;7.82;;;;;;;17.17;nan;99119.72;5071626;28;20123;-64
2023/10/18 01:35:34;;;;;;;14.00;8.70;;;;;;;17.25;nan;99126.63;5069790;28;20048;-64
2023/10/18 01:38:05;;;;;;;10.65;7.05;;;;;;;17.08;nan;99127.22;5077506;28;20434;-64
2023/10/18 01:40:43;;;;;;;18.55;7.95;;;;;;;17.19;nan;99132.88;5085693;28;20051;-64
2023/10/18 01:43:15;;;;;;;12.13;7.55;;;;;;;17.31;nan;99147.97;5082573;28;20860;-64
2023/10/18 01:45:49;;;;;;;11.20;8.13;;;;;;;17.43;nan;99146.19;5057630;28;20048;-64
2023/10/18 01:48:19;;;;;;;13.70;8.98;;;;;;;17.34;nan;99146.72;5080203;28;20471;-65
2023/10/18 01:50:51;;;;;;;13.20;9.68;;;;;;;17.29;nan;99149.22;5071241;28;20049;-63
2023/10/18 01:53:23;;;;;;;15.82;10.10;;;;;;;17.55;nan;99154.25;5066670;28;20048;-63
2023/10/18 01:55:53;;;;;;;15.07;10.23;;;;;;;17.66;nan;99150.81;5085607;28;20044;-64
2023/10/18 01:58:26;;;;;;;14.98;10.38;;;;;;;17.66;nan;99156.19;5064797;28;20289;-63
2023/10/18 02:00:56;;;;;;;;;;;;;;;17.65;nan;99149.22;5065391;28;20082;-64
2023/10/18 02:03:26;;;;;;;17.88;11.32;;;;;;;17.73;nan;99150.75;5065436;28;19931;-63
2023/10/18 02:05:56;;;;;;;19.45;10.57;;;;;;;17.72;nan;99157.16;5085940;28;20040;-64
2023/10/18 02:08:26;;;;;;;20.75;11.85;;;;;;;17.79;nan;99155.22;5064025;28;20051;-63
2023/10/18 02:10:56;;;;;;;15.77;10.98;;;;;;;17.84;nan;99166.84;5051048;28;20391;-63
2023/10/18 02:13:26;;;;;;;18.50;11.55;;;;;;;17.66;nan;99158.06;5082993;28;20525;-63
2023/10/18 02:15:57;;;;;;;20.20;12.07;;;;;;;17.80;nan;99167.53;5058570;28;20048;-63
2023/10/18 02:18:27;;;;;;;17.00;12.38;;;;;;;17.88;nan;99169.88;5052576;28;20052;-64
2023/10/18 02:20:56;;;;;;;18.52;12.38;;;;;;;17.96;nan;99169.59;5075527;28;20129;-64
2023/10/18 02:23:34;;;;;;;19.67;12.57;;;;;;;17.97;nan;99171.19;5082222;28;20797;-64
2023/10/18 02:26:27;;;;;;;18.70;12.70;;;;;;;18.10;nan;99168.31;5068830;28;20044;-64
2023/10/18 02:28:59;;;;;;;16.65;11.07;;;;;;;18.22;nan;99173.72;5085919;28;20055;-64
2023/10/18 02:31:30;;;;;;;16.52;10.13;;;;;;;18.24;nan;99176.97;5084101;28;20387;-64
2023/10/18 02:34:04;;;;;;;18.83;11.07;;;;;;;18.43;nan;99181.22;5060271;28;20054;-63
2023/10/18 02:36:51;;;;;;;15.45;10.30;;;;;;;18.54;nan;99185.00;5064377;28;20048;-63
2023/10/18 02:39:22;;;;;;;17.80;9.38;;;;;;;18.62;nan;99192.72;5070578;28;20044;-64
2023/10/18 02:41:53;;;;;;;15.48;9.60;;;;;;;18.81;nan;99194.22;5059773;28;20052;-64
2023/10/18 02:44:24;;;;;;;15.63;9.77;;;;;;;18.99;nan;99195.97;5073216;28;20048;-63
2023/10/18 02:46:54;;;;;;;12.35;9.38;;;;;;;19.01;nan;99192.00;5065931;28;20488;-64
2023/10/18 02:49:27;;;;;;;19.92;9.25;;;;;;;19.12;nan;99196.53;5066409;28;20412;-64
2023/10/18 02:51:57;;;;;;;19.95;9.90;;;;;;;19.20;nan;99203.44;5084361;28;20074;-64
2023/10/18 02:54:27;;;;;;;15.13;10.20;;;;;;;19.63;nan;99209.22;5062014;28;20052;-64
2023/10/18 02:56:59;;;;;;;20.65;10.13;;;;;;;19.53;nan;99211.69;5075165;28;20076;-64
2023/10/18 02:59:29;;;;;;;22.50;10.70;;;;;;;19.63;nan;99216.44;5065756;28;20055;-64
2023/10/18 03:02:01;;;;;;;20.80;11.18;;;;;;;19.71;nan;99208.00;5057642;28;20076;-64
2023/10/18 03:04:34;;;;;;;17.80;10.45;;;;;;;19.89;nan;99215.06;5075505;28;20475;-64
2023/10/18 03:07:08;;;;;;;18.35;10.93;;;;;;;19.90;nan;99222.09;5077097;28;20172;-64
2023/10/18 03:12:16;;;;;;;18.10;11.00;;;;;;;20.10;nan;99220.59;5074668;28;20134;-64
2023/10/18 03:14:54;;;;;;;17.73;11.50;;;;;;;20.18;nan;99222.06;5076372;28;20055;-64
2023/10/18 03:17:26;;;;;;;21.75;10.88;;;;;;;20.16;nan;99232.25;5081355;28;20047;-64
2023/10/18 03:19:56;;;;;;;20.25;11.10;;;;;;;20.37;nan;99228.06;5082534;28;20058;-64
2023/10/18 03:22:30;;;;;;;17.15;10.52;;;;;;;20.52;nan;99229.16;5083119;28;20043;-64
2023/10/18 03:25:00;;;;;;;16.77;7.78;;;;;;;20.56;nan;99230.31;5083862;28;20147;-64
2023/10/18 03:27:41;;;;;;;15.70;8.02;;;;;;;20.59;nan;99232.50;5082700;28;20072;-64
2023/10/18 03:30:24;;;;;;;11.93;7.55;;;;;;;20.58;nan;99230.88;5062530;28;20052;-64
2023/10/18 03:32:54;;;;;;;13.43;7.63;;;;;;;20.71;nan;99248.59;5076383;28;20431;-64
2023/10/18 03:35:25;;;;;;;11.98;6.63;;;;;;;20.56;nan;99243.75;5065977;28;20508;-64
2023/10/18 03:37:57;;;;;;;13.73;7.70;;;;;;;20.82;nan;99252.25;5063546;28;20156;-64
2023/10/18 03:40:29;;;;;;;13.52;6.90;;;;;;;20.80;nan;99255.16;5098187;28;20045;-64
2023/10/18 03:43:08;;;;;;;10.25;6.75;;;;;;;20.91;nan;99256.97;5071276;28;20044;-64
2023/10/18 03:48:45;;;;;;;14.02;7.57;;;;;;;21.45;nan;99255.38;5020381;28;20641;-64
2023/10/18 03:51:23;;;;;;;10.90;8.07;;;;;;;21.70;nan;99264.84;5061977;28;20048;-64
2023/10/18 03:53:55;;;;;;;18.20;8.75;;;;;;;21.82;nan;99262.81;5056743;28;20451;-64
2023/10/18 03:56:25;;;;;;;14.38;9.30;;;;;;;22.05;nan;99268.00;5071574;28;20075;-64
2023/10/18 03:59:01;;;;;;;14.32;8.27;;;;;;;22.28;nan;99272.28;5057437;28;20443;-64
2023/10/18 04:01:44;;;;;;;13.90;7.90;;;;;;;22.65;nan;99277.78;5074020;28;20042;-64
2023/10/18 04:04:18;;;;;;;89.68;15.48;;;;;;;23.12;nan;99272.50;5074816;28;20048;-64
2023/10/18 04:06:57;;;;;;;14.52;9.45;;;;;;;22.93;nan;99273.97;5075249;28;20513;-64
2023/10/18 04:09:29;;;;;;;29.27;11.73;;;;;;;23.05;nan;99274.63;5065979;28;20090;-64
2023/10/18 04:12:00;;;;;;;18.80;11.20;;;;;;;23.23;nan;99279.63;5065143;28;20052;-64
2023/10/18 04:14:29;;;;;;;16.33;10.70;;;;;;;23.39;nan;99280.50;5074265;28;20053;-64
2023/10/18 04:16:58;;;;;;;16.50;11.25;;;;;;;23.22;nan;99281.50;5074027;28;20072;-64
2023/10/18 04:19:28;;;;;;;20.63;12.90;;;;;;;23.73;nan;99279.91;5074989;28;20059;-65
2023/10/18 04:21:59;;;;;;;18.35;11.85;;;;;;;23.78;nan;99278.31;5073864;28;20148;-62
2023/10/18 04:24:28;;;;;;;18.92;12.20;;;;;;;23.80;nan;99282.38;5079229;28;20052;-65
2023/10/18 04:27:02;;;;;;;23.30;12.48;;;;;;;23.35;nan;99282.09;5079748;28;20051;-63
2023/10/18 04:29:33;;;;;;;;;;;;;;;24.13;nan;99284.66;5084174;28;20044;-64
2023/10/18 04:32:05;;;;;;;18.60;11.15;;;;;;;24.42;nan;99276.91;5077393;28;20378;-64
2023/10/18 04:34:35;;;;;;;16.13;10.35;;;;;;;24.95;nan;99285.66;5079019;28;20045;-65
2023/10/18 04:37:09;;;;;;;14.00;10.18;;;;;;;24.84;nan;99284.78;5079667;28;20131;-64
2023/10/18 04:39:41;;;;;;;12.63;9.98;;;;;;;25.14;nan;99289.41;5073973;28;20135;-64
2023/10/18 04:42:16;;;;;;;16.42;10.02;;;;;;;24.78;nan;99279.66;5081179;28;20063;-64
2023/10/18 04:44:49;;;;;;;12.57;10.40;;;;;;;24.93;nan;99275.06;5079601;28;20076;-64
2023/10/18 04:47:18;;;;;;;15.17;10.50;;;;;;;25.24;nan;99285.88;5075202;28;20055;-64
2023/10/18 04:50:00;;;;;;;14.25;10.32;;;;;;;25.49;nan;99292.06;5086767;28;20621;-65
2023/10/18 04:52:40;;;;;;;16.08;11.70;;;;;;;25.60;nan;99297.50;5086723;28;20134;-63
2023/10/18 04:55:12;;;;;;;15.18;10.73;;;;;;;25.84;nan;99296.63;5085587;28;20695;-64
2023/10/18 04:57:43;;;;;;;12.35;9.85;;;;;;;25.82;nan;99287.94;5075997;28;20147;-61
2023/10/18 05:00:25;;;;;;;15.05;10.05;;;;;;;25.68;nan;99296.91;5075187;28;20048;-62
2023/10/18 05:03:02;;;;;;;13.60;10.48;;;;;;;25.43;nan;99298.59;5079855;28;20044;-62
2023/10/18 05:05:31;;;;;;;16.75;9.50;;;;;;;25.37;nan;99296.97;5081121;28;20045;-64
2023/10/18 05:08:00;;;;;;;12.90;9.23;;;;;;;25.85;nan;99300.13;5068189;28;20048;-64
2023/10/18 05:10:30;;;;;;;14.77;8.77;;;;;;;25.84;nan;99293.91;5081948;28;20051;-63
2023/10/18 05:15:29;;;;;;;13.75;8.70;;;;;;;26.06;nan;99300.88;5083074;28;20052;-62
2023/10/18 05:18:04;;;;;;;10.50;8.20;;;;;;;26.13;nan;99299.47;5086443;28;20044;-61
2023/10/18 05:20:47;;;;;;;12.38;8.73;;;;;;;26.33;nan;99295.88;5073182;28;20555;-63
2023/10/18 05:23:24;;;;;;;17.70;10.18;;;;;;;25.30;nan;99291.03;5081975;28;20052;-64
2023/10/18 05:29:01;;;;;;;14.18;9.38;;;;;;;25.87;nan;99293.34;5079569;28;20055;-64
2023/10/18 05:32:06;;;;;;;19.60;10.40;;;;;;;26.18;nan;99298.63;5077667;28;20048;-64
2023/10/18 05:34:54;;;;;;;17.55;12.25;;;;;;;25.66;nan;99293.69;5078349;28;20798;-63
2023/10/18 05:37:59;;;;;;;18.85;11.60;;;;;;;26.20;nan;99288.31;5075136;28;20102;-63
2023/10/18 05:45:58;;;;;;;19.63;11.30;;;;;;;25.71;nan;99278.19;5077597;28;20037;-64
2023/10/18 05:48:41;;;;;;;21.98;12.55;;;;;;;25.99;nan;99281.31;5073144;28;20130;-64
2023/10/18 06:13:45;;;;;;;20.98;11.15;;;;;;;;;;5089652;27;21050;-64
2023/10/18 06:16:20;;;;;;;18.75;10.57;;;;;;;25.08;nan;99259.88;5060160;28;20041;-64
2023/10/18 06:18:50;;;;;;;17.63;11.13;;;;;;;26.06;nan;99262.84;5066048;28;21429;-65
2023/10/18 06:21:19;;;;;;;21.98;11.02;;;;;;;25.84;nan;99257.81;5062152;28;20484;-62
2023/10/18 06:23:54;;;;;;;17.38;10.27;;;;;;;25.80;nan;99262.94;5065230;28;20044;-62
2023/10/18 06:26:28;;;;;;;18.92;10.52;;;;;;;26.41;nan;99259.94;5077839;28;20059;-63
2023/10/18 06:29:01;;;;;;;15.50;10.15;;;;;;;26.87;nan;99257.72;5080245;28;20495;-62
2023/10/18 06:31:31;;;;;;;18.55;9.35;;;;;;;26.50;nan;99254.72;5059442;28;20049;-62
2023/10/18 06:34:04;;;;;;;12.68;8.43;;;;;;;26.34;nan;99252.09;5056804;28;20048;-63
2023/10/18 06:36:33;;;;;;;12.67;7.63;;;;;;;26.83;nan;99246.56;5061213;28;20049;-63
2023/10/18 06:39:04;;;;;;;17.45;8.07;;;;;;;26.49;nan;99253.09;5062821;28;20924;-62
2023/10/18 06:41:36;;;;;;;11.10;6.80;;;;;;;26.01;nan;99241.16;5056103;28;20052;-63
2023/10/18 06:44:11;;;;;;;11.02;7.15;;;;;;;26.05;nan;99242.22;5056283;28;20090;-65
2023/10/18 06:46:44;;;;;;;11.13;5.75;;;;;;;25.90;nan;99248.53;5049334;28;20159;-62
2023/10/18 06:49:13;;;;;;;10.48;6.30;;;;;;;25.87;nan;99228.19;5051243;28;20087;-63
2023/10/18 06:51:43;;;;;;;10.20;5.90;;;;;;;26.33;nan;99231.47;5055027;28;20140;-63
2023/10/18 06:54:15;;;;;;;9.20;5.95;;;;;;;26.54;nan;99226.72;5053330;28;20516;-63
2023/10/18 06:56:48;;;;;;;9.52;5.47;;;;;;;26.12;nan;99227.22;5055707;28;20052;-63
2023/10/18 06:59:25;;;;;;;9.73;4.75;;;;;;;25.96;nan;99224.88;5055642;28;20052;-62
2023/10/18 07:01:58;;;;;;;7.13;5.57;;;;;;;26.06;nan;99222.13;5055662;28;20401;-63
2023/10/18 07:04:29;;;;;;;9.27;6.10;;;;;;;26.04;nan;99219.69;5079191;28;20495;-63
2023/10/18 07:06:59;;;;;;;11.10;6.15;;;;;;;25.65;nan;99210.66;5082907;28;20052;-63
2023/10/18 07:09:31;;;;;;;11.02;5.70;;;;;;;25.88;nan;99205.41;5064678;28;20053;-63
2023/10/18 07:12:04;;;;;;;15.65;6.53;;;;;;;25.87;nan;99203.78;5083090;28;20048;-62
2023/10/18 07:14:34;;;;;;;16.77;5.80;;;;;;;25.91;nan;99202.13;5067136;28;20056;-62
2023/10/18 07:17:04;;;;;;;7.78;4.93;;;;;;;26.09;nan;99202.56;5074983;28;20045;-63
2023/10/18 07:19:41;;;;;;;11.43;5.60;;;;;;;26.22;nan;99197.34;5076549;28;20159;-64
2023/10/18 07:22:17;;;;;;;8.32;5.10;;;;;;;26.27;nan;99193.78;5074483;28;20052;-63
2023/10/18 07:24:59;;;;;;;9.90;4.70;;;;;;;26.18;nan;99187.28;5074602;28;20760;-63
2023/10/18 07:27:31;;;;;;;9.40;3.95;;;;;;;25.80;nan;99192.38;5070182;28;20802;-63
2023/10/18 07:30:01;;;;;;;11.27;4.63;;;;;;;25.87;nan;99175.81;5071862;28;20048;-63
2023/10/18 07:32:31;;;;;;;12.65;4.93;;;;;;;26.16;nan;99182.13;5074924;28;20055;-63
2023/10/18 07:35:01;;;;;;;9.27;4.90;;;;;;;26.08;nan;99179.19;5105352;27;20078;-63
2023/10/18 07:37:41;;;;;;;6.88;4.68;;;;;;;26.08;nan;99173.78;5075700;28;20060;-64
2023/10/18 07:40:11;;;;;;;7.18;4.03;;;;;;;25.75;nan;99165.31;5054764;28;20044;-63
2023/10/18 07:42:43;;;;;;;9.48;5.00;;;;;;;26.08;nan;99150.16;5055762;28;20124;-63
2023/10/18 07:45:17;;;;;;;5.57;4.28;;;;;;;25.91;nan;99155.97;5066876;28;20052;-63
2023/10/18 07:47:53;;;;;;;7.93;4.35;;;;;;;25.74;nan;99147.41;5064661;28;20353;-63
2023/10/18 07:51:21;;;;;;;9.25;4.55;;;;;;;25.96;nan;99149.69;5066102;28;20055;-63
2023/10/18 07:53:15;;;;;;;6.65;4.57;;;;;;;25.87;nan;99141.34;5060803;28;20870;-62
2023/10/18 07:55:53;;;;;;;6.47;3.83;;;;;;;25.79;nan;99136.53;5065670;28;20052;-63
2023/10/18 07:58:26;;;;;;;5.95;3.95;;;;;;;25.47;nan;99123.38;5062813;28;20475;-63
2023/10/18 08:03:33;;;;;;;5.80;4.97;;;;;;;25.72;nan;99118.91;5071821;28;20056;-63
2023/10/18 08:06:26;;;;;;;6.95;4.72;;;;;;;25.96;nan;99116.31;5070516;28;20040;-64
2023/10/18 08:08:55;;;;;;;7.78;4.70;;;;;;;25.73;nan;99115.91;5049525;28;20468;-63
2023/10/18 08:11:24;;;;;;;7.47;4.70;;;;;;;25.81;nan;99117.22;5063309;28;20059;-63
2023/10/18 08:13:54;;;;;;;6.97;5.03;;;;;;;25.72;nan;99106.16;5065494;28;20356;-63
2023/10/18 08:16:27;;;;;;;12.88;5.10;;;;;;;25.64;nan;99106.75;5072568;28;20063;-63
2023/10/18 08:18:57;;;;;;;6.60;5.18;;;;;;;25.69;nan;99111.34;5079412;28;20043;-62
2023/10/18 08:21:28;;;;;;;10.57;6.75;;;;;;;25.57;nan;99100.84;5067522;28;20052;-63
2023/10/18 08:23:57;;;;;;;8.55;6.72;;;;;;;25.59;nan;99098.63;5079413;28;20135;-63
2023/10/18 08:26:27;;;;;;;8.00;5.93;;;;;;;25.75;nan;99097.47;5068126;28;20044;-63
2023/10/18 08:28:57;;;;;;;8.40;5.63;;;;;;;25.75;nan;99096.66;5086097;28;20774;-63
2023/10/18 08:31:32;;;;;;;9.95;6.38;;;;;;;25.47;nan;99085.41;5073605;28;20140;-63
2023/10/18 08:34:06;;;;;;;13.32;7.60;;;;;;;25.57;nan;99083.75;5079949;28;20045;-63
2023/10/18 08:36:35;;;;;;;8.85;6.18;;;;;;;25.49;nan;99085.13;5086801;28;20072;-63
2023/10/18 08:39:06;;;;;;;12.90;7.00;;;;;;;25.38;nan;99075.41;5065289;28;20557;-63
2023/10/18 08:41:44;;;;;;;10.65;7.20;;;;;;;25.48;nan;99078.06;5052798;28;20045;-63
2023/10/18 08:44:22;;;;;;;15.05;8.45;;;;;;;25.42;nan;99077.28;5061303;28;20055;-63
2023/10/18 08:49:50;;;;;;;12.20;6.22;;;;;;;25.65;nan;99069.59;5076504;28;20576;-63
2023/10/18 08:52:34;;;;;;;15.13;8.18;;;;;;;25.61;nan;99061.19;5055446;28;20091;-63
2023/10/18 08:55:22;;;;;;;11.48;6.20;;;;;;;25.38;nan;99059.13;5078833;28;20048;-63
2023/10/18 08:57:55;;;;;;;17.65;5.60;;;;;;;25.63;nan;99064.44;5061261;28;20044;-62
2023/10/18 09:02:58;;;;;;;11.95;4.68;;;;;;;25.50;nan;99054.97;5054910;28;20048;-63
2023/10/18 09:05:28;;;;;;;12.38;5.32;;;;;;;25.37;nan;99043.94;5082340;28;20357;-63
2023/10/18 09:08:07;;;;;;;10.07;5.22;;;;;;;25.34;nan;99048.03;5059956;28;20044;-63
2023/10/18 09:18:48;;;;;;;7.95;4.78;;;;;;;25.27;nan;99022.34;5023309;28;20051;-64
2023/10/18 09:21:18;;;;;;;8.77;4.50;;;;;;;25.25;nan;99019.91;5059095;28;20052;-63
2023/10/18 09:23:49;;;;;;;8.20;3.88;;;;;;;25.24;nan;99014.75;5071122;28;20360;-63
2023/10/18 09:26:26;;;;;;;6.90;3.42;;;;;;;25.23;nan;99013.94;5082532;28;20807;-63
2023/10/18 09:28:59;;;;;;;6.28;3.83;;;;;;;25.31;nan;99012.53;5089225;28;20053;-63
2023/10/18 09:31:29;;;;;;;6.53;3.40;;;;;;;25.44;nan;99006.50;5078756;28;20054;-64
2023/10/18 09:33:58;;;;;;;10.45;3.53;;;;;;;25.22;nan;99008.81;5064846;28;20051;-63
2023/10/18 09:36:29;;;;;;;6.72;2.72;;;;;;;25.35;nan;99005.47;5083213;28;20104;-63
2023/10/18 09:38:59;;;;;;;6.93;3.60;;;;;;;25.30;nan;99006.31;5064274;28;20143;-63
2023/10/18 09:41:31;;;;;;;5.18;3.33;;;;;;;25.28;nan;98996.81;5079471;28;20036;-64
2023/10/18 09:44:03;;;;;;;6.10;3.20;;;;;;;25.11;nan;98985.53;5089924;28;20051;-63
2023/10/18 09:46:33;;;;;;;8.00;2.92;;;;;;;25.16;nan;98993.66;5084625;28;20062;-63
2023/10/18 09:49:09;;;;;;;7.78;2.63;;;;;;;25.15;nan;98987.41;5092381;28;20087;-63
2023/10/18 09:51:44;;;;;;;5.10;3.17;;;;;;;25.20;nan;98989.28;5094883;28;20043;-64
2023/10/18 09:54:21;;;;;;;6.10;3.30;;;;;;;25.24;nan;98987.63;5089717;28;20072;-63
2023/10/18 09:56:55;;;;;;;6.35;2.85;;;;;;;25.10;nan;98990.16;5091259;28;20062;-63
2023/10/18 09:59:30;;;;;;;7.47;3.47;;;;;;;24.95;nan;98990.25;5063798;28;20135;-63
2023/10/18 10:02:07;;;;;;;4.28;2.67;;;;;;;25.22;nan;98984.41;5053718;28;20820;-64
2023/10/18 10:04:39;;;;;;;4.00;2.75;;;;;;;25.16;nan;98980.09;5081931;28;20373;-64
2023/10/18 10:10:09;;;;;;;4.00;2.45;;;;;;;25.25;nan;98975.69;5066690;28;20045;-63
2023/10/18 10:12:50;;;;;;;7.85;2.60;;;;;;;25.11;nan;98980.94;5058047;28;20049;-64
2023/10/18 10:15:28;;;;;;;6.22;3.03;;;;;;;25.09;nan;98976.91;5069292;28;20582;-64
2023/10/18 10:18:00;;;;;;;7.67;3.33;;;;;;;25.01;nan;98984.50;5041275;28;20045;-64
2023/10/18 10:20:33;;;;;;;6.65;2.80;;;;;;;24.94;nan;98978.59;5074091;28;20387;-62
2023/10/18 10:23:15;;;;;;;8.65;3.08;;;;;;;25.20;nan;98971.13;5083777;28;20055;-64
2023/10/18 10:26:01;;;;;;;7.22;2.85;;;;;;;25.07;nan;98973.63;5080161;28;20063;-64
2023/10/18 10:31:57;;;;;;;5.43;2.42;;;;;;;25.00;nan;98972.03;5061616;28;20040;-64
2023/10/18 10:34:36;;;;;;;3.35;2.22;;;;;;;24.89;nan;98973.19;5066101;28;20038;-64
2023/10/18 10:37:23;;;;;;;6.90;3.38;;;;;;;24.75;nan;98966.72;5061157;28;20045;-64
2023/10/18 10:42:49;;;;;;;7.53;2.33;;;;;;;24.98;nan;98963.38;5078988;28;20044;-64
2023/10/18 10:45:43;;;;;;;2.95;2.20;;;;;;;25.08;nan;98959.00;5054702;28;20048;-63
2023/10/18 10:48:28;;;;;;;4.20;2.33;;;;;;;25.02;nan;98955.50;5075236;28;20058;-64
2023/10/18 10:51:12;;;;;;;2.88;2.28;;;;;;;24.89;nan;98956.13;5082118;28;20067;-64
2023/10/18 10:53:58;;;;;;;3.75;2.20;;;;;;;24.78;nan;98965.38;5080721;28;20475;-64
2023/10/18 10:56:30;;;;;;;3.63;2.20;;;;;;;24.85;nan;98961.25;5085551;28;20519;-63
2023/10/18 11:01:43;;;;;;;4.72;2.67;;;;;;;24.67;nan;98959.19;5084538;28;20040;-64
2023/10/18 11:04:27;;;;;;;4.32;2.60;;;;;;;24.58;nan;98960.84;5082657;28;20059;-64
2023/10/18 11:07:08;;;;;;;6.78;2.92;;;;;;;24.54;nan;98960.59;5083407;28;20048;-64
2023/10/18 11:09:41;;;;;;;5.28;3.08;;;;;;;24.49;nan;98959.78;5084144;28;20521;-62
2023/10/18 11:12:12;;;;;;;10.35;3.60;;;;;;;24.48;nan;98950.84;5086129;28;20603;-62
2023/10/18 11:14:50;;;;;;;8.20;3.00;;;;;;;24.42;nan;98948.47;5086933;28;20089;-62
2023/10/18 11:17:23;;;;;;;4.47;2.92;;;;;;;24.46;nan;98955.75;5085852;28;20056;-62
2023/10/18 11:19:59;;;;;;;9.30;2.80;;;;;;;24.53;nan;98947.31;5083439;28;20123;-62
2023/10/18 11:22:31;;;;;;;3.58;2.63;;;;;;;24.42;nan;98945.75;5080228;28;20048;-62
2023/10/18 11:25:01;;;;;;;4.78;2.80;;;;;;;24.40;nan;98948.72;5074197;28;20044;-62
2023/10/18 11:27:37;;;;;;;4.90;2.30;;;;;;;24.35;nan;98946.03;5075595;28;20642;-62
2023/10/18 11:30:16;;;;;;;8.00;2.80;;;;;;;24.36;nan;98946.84;5068865;28;20067;-62
2023/10/18 11:32:49;;;;;;;5.50;2.97;;;;;;;24.28;nan;98944.72;5081710;28;20047;-62
2023/10/18 11:35:42;;;;;;;4.35;2.90;;;;;;;24.26;nan;98949.56;5094648;28;20482;-62
2023/10/18 11:38:14;;;;;;;5.45;2.50;;;;;;;24.25;nan;98947.97;5070179;28;20059;-62
2023/10/18 11:40:50;;;;;;;9.30;2.88;;;;;;;24.17;nan;98938.50;5076499;28;20050;-61
2023/10/18 11:43:26;;;;;;;7.75;3.20;;;;;;;23.92;nan;98946.66;5069159;28;20051;-62
2023/10/18 11:46:11;;;;;;;11.85;3.95;;;;;;;23.94;nan;98944.50;5079059;28;20068;-61
2023/10/18 11:48:41;;;;;;;8.35;3.80;;;;;;;24.00;nan;98946.91;5070870;28;20542;-60
2023/10/18 11:51:13;;;;;;;7.65;3.40;;;;;;;23.98;nan;98946.38;5069400;28;20062;-61
2023/10/18 11:53:42;;;;;;;7.03;3.35;;;;;;;23.97;nan;98949.34;5062468;28;20646;-61
2023/10/18 11:56:13;;;;;;;7.63;3.40;;;;;;;24.01;nan;98945.81;5057380;28;20138;-61
2023/10/18 11:58:59;;;;;;;7.32;3.03;;;;;;;23.96;nan;98951.25;5063494;28;20190;-61
2023/10/18 12:01:35;;;;;;;5.82;3.22;;;;;;;23.80;nan;98949.66;5054718;28;20373;-62
2023/10/18 12:04:06;;;;;;;8.52;3.22;;;;;;;23.80;nan;98955.06;5057127;28;20052;-61
2023/10/18 12:06:36;;;;;;;6.45;3.28;;;;;;;23.77;nan;98955.59;5068284;28;20132;-61
2023/10/18 12:11:41;;;;;;;10.55;4.07;;;;;;;23.67;nan;98948.31;5068174;28;20054;-62
2023/10/18 12:14:10;;;;;;;5.43;3.33;;;;;;;23.61;nan;98948.56;5064295;28;20397;-62
2023/10/18 12:16:41;;;;;;;5.35;3.58;;;;;;;23.55;nan;98949.63;5065989;28;20045;-62
2023/10/18 12:19:13;;;;;;;11.90;3.47;;;;;;;23.53;nan;98951.81;5061459;28;20332;-62
2023/10/18 12:21:48;;;;;;;8.70;4.40;;;;;;;23.44;nan;98948.84;5054900;28;20098;-61
2023/10/18 12:24:18;;;;;;;11.82;3.55;;;;;;;23.38;nan;98946.38;5074965;28;20046;-61
2023/10/18 12:26:54;;;;;;;17.85;4.60;;;;;;;23.35;nan;98945.03;5086730;28;20048;-61
2023/10/18 12:29:26;;;;;;;11.27;3.80;;;;;;;23.29;nan;98949.59;5082323;28;20051;-64
2023/10/18 12:32:18;;;;;;;9.57;3.80;;;;;;;23.28;nan;98956.09;5082072;28;20044;-61
2023/10/18 12:34:48;;;;;;;14.18;3.70;;;;;;;23.08;nan;98947.97;5084423;28;20277;-62
2023/10/18 12:37:18;;;;;;;7.18;5.07;;;;;;;23.08;nan;98955.25;5082107;28;20044;-63
2023/10/18 12:39:47;;;;;;;11.50;4.63;;;;;;;23.11;nan;98952.81;5056276;28;20056;-60
2023/10/18 12:42:19;;;;;;;15.05;4.40;;;;;;;22.98;nan;98956.03;5064518;28;20119;-60
2023/10/18 12:44:55;;;;;;;10.10;4.35;;;;;;;22.92;nan;98962.53;5058852;28;20045;-61
2023/10/18 12:47:24;;;;;;;10.60;4.40;;;;;;;22.82;nan;98962.50;5066802;28;20051;-61
2023/10/18 12:49:56;;;;;;;13.02;4.75;;;;;;;22.81;nan;98961.66;5078624;28;20040;-60
2023/10/18 12:57:54;;;;;;;17.67;5.50;;;;;;;22.61;nan;98958.88;5062714;28;20040;-59
2023/10/18 13:00:26;;;;;;;13.48;5.60;;;;;;;22.63;nan;98959.41;5053943;28;20053;-59
2023/10/18 13:05:40;;;;;;;13.45;5.90;;;;;;;22.47;nan;98962.31;5069350;28;20277;-61
2023/10/18 13:08:22;;;;;;;16.98;5.82;;;;;;;22.43;nan;98963.91;5060080;28;20059;-60
2023/10/18 13:13:35;;;;;;;14.23;5.40;;;;;;;22.35;nan;98966.03;5064109;28;20048;-61
2023/10/18 13:16:04;;;;;;;12.88;5.93;;;;;;;22.39;nan;98972.53;4709644;28;10000561;-60
2023/10/18 13:18:34;;;;;;;20.08;5.45;;;;;;;22.35;nan;98974.13;5060144;28;20653;-60
2023/10/18 13:21:08;;;;;;;17.70;5.65;;;;;;;22.22;nan;98974.59;5060850;28;20055;-59
2023/10/18 13:23:44;;;;;;;15.73;6.45;;;;;;;22.20;nan;98962.44;5061255;28;20155;-60
2023/10/18 13:26:19;;;;;;;16.52;5.88;;;;;;;22.23;nan;98972.72;5061152;28;20048;-59
2023/10/18 13:28:51;;;;;;;17.13;6.63;;;;;;;22.15;nan;98976.72;5083675;28;20108;-60
2023/10/18 13:31:30;;;;;;;25.45;6.38;;;;;;;22.22;nan;98982.69;5089036;28;20054;-60
2023/10/18 13:34:06;;;;;;;26.27;6.95;;;;;;;22.19;nan;98985.91;5086341;28;20116;-61
2023/10/18 13:36:36;;;;;;;21.10;6.85;;;;;;;22.11;nan;98986.41;5069154;28;20063;-60
2023/10/18 13:39:11;;;;;;;17.83;6.40;;;;;;;22.06;nan;98986.38;5055852;28;20056;-61